createdAt,value
2019-03-06T00:00:26.798Z,5.86
2019-03-06T00:01:26.845Z,5.96
2019-03-06T00:02:26.881Z,5.91
2019-03-06T00:03:27.008Z,5.85
2019-03-06T00:04:26.967Z,5.82
2019-03-06T00:05:27.022Z,5.81
2019-03-06T00:06:27.054Z,5.71
2019-03-06T00:07:27.100Z,5.70
2019-03-06T00:08:27.161Z,5.70
2019-03-06T00:09:27.186Z,5.67
2019-03-06T00:10:27.219Z,5.66
2019-03-06T00:11:27.274Z,5.59
2019-03-06T00:12:27.308Z,5.56
2019-03-06T00:13:27.373Z,5.60
2019-03-06T00:14:27.443Z,5.59
2019-03-06T00:15:27.435Z,5.59
2019-03-06T00:16:27.485Z,5.57
2019-03-06T00:17:27.523Z,5.63
2019-03-06T00:18:27.564Z,5.52
2019-03-06T00:19:27.631Z,5.60
2019-03-06T00:20:27.666Z,5.64
2019-03-06T00:21:27.693Z,5.57
2019-03-06T00:22:27.735Z,5.59
2019-03-06T00:23:27.778Z,5.64
2019-03-06T00:24:27.837Z,5.60
2019-03-06T00:25:27.862Z,5.64
2019-03-06T00:26:27.909Z,5.66
2019-03-06T00:27:27.944Z,5.67
2019-03-06T00:28:28.005Z,5.60
2019-03-06T00:29:28.055Z,5.60
2019-03-06T00:30:28.078Z,5.60
2019-03-06T00:31:28.132Z,5.60
2019-03-06T00:32:28.164Z,5.56
2019-03-06T00:33:28.203Z,5.53
2019-03-06T00:34:28.270Z,5.55
2019-03-06T00:35:28.292Z,5.49
2019-03-06T00:36:28.328Z,5.55
2019-03-06T00:37:28.371Z,5.56
2019-03-06T00:38:28.412Z,5.60
2019-03-06T00:39:28.479Z,5.55
2019-03-06T00:40:28.525Z,5.68
2019-03-06T00:41:28.554Z,5.71
2019-03-06T00:42:28.600Z,5.74
2019-03-06T00:43:28.632Z,5.73
2019-03-06T00:44:28.671Z,5.74
2019-03-06T00:45:28.870Z,5.71
2019-03-06T00:46:28.770Z,5.68
2019-03-06T00:47:28.799Z,5.70
2019-03-06T00:48:28.843Z,5.68
2019-03-06T00:49:28.881Z,5.67
2019-03-06T00:50:28.947Z,5.70
2019-03-06T00:51:28.963Z,5.64
2019-03-06T00:52:29.123Z,5.57
2019-03-06T00:53:29.058Z,5.60
2019-03-06T00:54:29.094Z,5.56
2019-03-06T00:55:29.156Z,5.53
2019-03-06T00:56:29.175Z,5.53
2019-03-06T00:57:29.230Z,5.49
2019-03-06T00:58:29.268Z,5.48
2019-03-06T00:59:29.339Z,5.53
2019-03-06T01:00:29.386Z,5.50
2019-03-06T01:01:29.402Z,5.56
2019-03-06T01:02:29.430Z,5.50
2019-03-06T01:03:29.479Z,5.50
2019-03-06T01:04:29.520Z,5.49
2019-03-06T01:05:29.577Z,5.56
2019-03-06T01:06:29.610Z,5.38
2019-03-06T01:07:29.646Z,5.40
2019-03-06T01:08:29.686Z,5.32
2019-03-06T01:09:29.725Z,5.34
2019-03-06T01:10:29.791Z,5.31
2019-03-06T01:11:29.828Z,5.34
2019-03-06T01:12:29.853Z,5.32
2019-03-06T01:13:29.998Z,5.27
2019-03-06T01:14:29.946Z,5.34
2019-03-06T01:15:29.984Z,5.30
2019-03-06T01:16:30.043Z,5.50
2019-03-06T01:17:30.088Z,5.50
2019-03-06T01:18:30.104Z,5.60
2019-03-06T01:19:30.155Z,5.59
2019-03-06T01:20:30.269Z,5.66
2019-03-06T01:21:30.253Z,5.56
2019-03-06T01:22:30.300Z,5.63
2019-03-06T01:23:30.317Z,5.60
2019-03-06T01:24:30.370Z,5.60
2019-03-06T01:25:30.402Z,5.57
2019-03-06T01:26:30.462Z,5.57
2019-03-06T01:27:30.484Z,5.52
2019-03-06T01:28:30.529Z,5.52
2019-03-06T01:29:30.577Z,5.49
2019-03-06T01:30:30.616Z,5.57
2019-03-06T01:31:30.683Z,5.56
2019-03-06T01:32:30.697Z,5.46
2019-03-06T01:33:30.742Z,5.60
2019-03-06T01:34:30.780Z,5.67
2019-03-06T01:35:30.833Z,5.78
2019-03-06T01:36:30.921Z,5.73
2019-03-06T01:37:30.908Z,5.74
2019-03-06T01:38:30.952Z,5.74
2019-03-06T01:39:30.993Z,5.74
2019-03-06T01:40:31.032Z,5.71
2019-03-06T01:41:31.097Z,5.82
2019-03-06T01:42:31.121Z,5.71
2019-03-06T01:43:31.187Z,5.71
2019-03-06T01:44:31.213Z,5.91
2019-03-06T01:45:31.248Z,5.95
2019-03-06T01:46:31.289Z,6.03
2019-03-06T01:47:31.392Z,6.14
2019-03-06T01:48:31.395Z,6.29
2019-03-06T01:49:31.423Z,6.36
2019-03-06T01:50:31.461Z,6.53
2019-03-06T01:51:31.499Z,6.63
2019-03-06T01:52:31.541Z,6.62
2019-03-06T01:53:31.613Z,6.61
2019-03-06T01:54:31.629Z,6.65
2019-03-06T01:55:31.674Z,6.71
2019-03-06T01:56:31.713Z,6.68
2019-03-06T01:57:31.781Z,6.63
2019-03-06T01:58:31.797Z,6.62
2019-03-06T01:59:31.841Z,6.63
2019-03-06T02:00:31.884Z,6.62
2019-03-06T02:01:31.933Z,6.54
2019-03-06T02:02:31.988Z,6.51
2019-03-06T02:03:32.008Z,6.53
2019-03-06T02:04:32.055Z,6.63
2019-03-06T02:05:32.107Z,6.53
2019-03-06T02:06:32.135Z,6.50
2019-03-06T02:07:32.200Z,6.48
2019-03-06T02:08:32.389Z,6.46
2019-03-06T02:09:32.274Z,6.47
2019-03-06T02:10:32.307Z,6.48
2019-03-06T02:11:32.347Z,6.36
2019-03-06T02:12:32.396Z,6.46
2019-03-06T02:13:32.464Z,6.56
2019-03-06T02:14:32.477Z,6.66
2019-03-06T02:15:32.541Z,6.68
2019-03-06T02:16:32.562Z,6.63
2019-03-06T02:17:32.609Z,6.58
2019-03-06T02:18:32.666Z,6.63
2019-03-06T02:19:32.720Z,6.58
2019-03-06T02:20:32.730Z,6.56
2019-03-06T02:21:32.784Z,6.43
2019-03-06T02:22:32.851Z,6.30
2019-03-06T02:23:32.889Z,6.33
2019-03-06T02:24:32.901Z,6.21
2019-03-06T02:25:32.947Z,6.10
2019-03-06T02:26:32.996Z,6.10
2019-03-06T02:27:33.035Z,6.11
2019-03-06T02:28:33.103Z,6.07
2019-03-06T02:29:33.118Z,6.00
2019-03-06T02:30:33.162Z,5.92
2019-03-06T02:31:33.210Z,5.92
2019-03-06T02:32:33.256Z,5.96
2019-03-06T02:33:33.355Z,5.98
2019-03-06T02:34:33.329Z,5.93
2019-03-06T02:35:33.375Z,5.95
2019-03-06T02:36:33.425Z,5.89
2019-03-06T02:37:33.456Z,5.86
2019-03-06T02:38:33.519Z,5.89
2019-03-06T02:39:33.544Z,5.91
2019-03-06T02:40:33.715Z,5.93
2019-03-06T02:41:33.629Z,5.91
2019-03-06T02:42:33.674Z,5.77
2019-03-06T02:43:33.728Z,5.74
2019-03-06T02:44:33.757Z,5.82
2019-03-06T02:45:33.817Z,5.73
2019-03-06T02:46:33.841Z,5.73
2019-03-06T02:47:33.882Z,5.71
2019-03-06T02:48:33.929Z,5.77
2019-03-06T02:49:33.990Z,5.82
2019-03-06T02:50:34.014Z,5.81
2019-03-06T02:51:34.052Z,5.83
2019-03-06T02:52:34.094Z,5.78
2019-03-06T02:53:34.150Z,5.68
2019-03-06T02:54:34.198Z,5.82
2019-03-06T02:55:34.224Z,5.78
2019-03-06T02:56:34.262Z,5.78
2019-03-06T02:57:34.304Z,5.71
2019-03-06T02:58:34.348Z,5.75
2019-03-06T02:59:34.415Z,5.71
2019-03-06T03:00:34.433Z,5.68
2019-03-06T03:01:34.474Z,5.71
2019-03-06T03:02:34.518Z,5.74
2019-03-06T03:03:34.561Z,5.74
2019-03-06T03:04:34.632Z,5.75
2019-03-06T03:05:34.641Z,5.71
2019-03-06T03:06:34.683Z,5.74
2019-03-06T03:07:34.732Z,5.71
2019-03-06T03:08:34.769Z,5.74
2019-03-06T03:09:34.829Z,5.70
2019-03-06T03:10:34.914Z,5.73
2019-03-06T03:11:34.897Z,5.71
2019-03-06T03:12:34.938Z,5.71
2019-03-06T03:13:34.980Z,5.67
2019-03-06T03:14:35.042Z,5.68
2019-03-06T03:15:35.086Z,5.68
2019-03-06T03:16:35.109Z,5.67
2019-03-06T03:17:35.149Z,5.57
2019-03-06T03:18:35.188Z,5.53
2019-03-06T03:19:35.232Z,5.48
2019-03-06T03:20:35.299Z,5.52
2019-03-06T03:21:35.332Z,5.48
2019-03-06T03:22:35.358Z,5.35
2019-03-06T03:23:35.401Z,5.30
2019-03-06T03:24:35.448Z,5.23
2019-03-06T03:25:35.540Z,5.22
2019-03-06T03:26:35.528Z,5.17
2019-03-06T03:27:35.566Z,5.04
2019-03-06T03:28:35.614Z,4.95
2019-03-06T03:29:35.668Z,4.92
2019-03-06T03:30:35.717Z,4.91
2019-03-06T03:31:35.739Z,4.86
2019-03-06T03:32:35.779Z,4.86
2019-03-06T03:33:35.833Z,4.80
2019-03-06T03:34:35.916Z,4.76
2019-03-06T03:35:35.991Z,4.64
2019-03-06T03:36:35.948Z,4.62
2019-03-06T03:37:35.990Z,4.51
2019-03-06T03:38:36.035Z,4.40
2019-03-06T03:39:36.082Z,4.36
2019-03-06T03:40:36.172Z,4.40
2019-03-06T03:41:36.166Z,4.40
2019-03-06T03:42:36.200Z,4.39
2019-03-06T03:43:36.261Z,4.25
2019-03-06T03:44:36.280Z,4.16
2019-03-06T03:45:36.361Z,4.28
2019-03-06T03:46:36.364Z,4.25
2019-03-06T03:47:36.417Z,4.21
2019-03-06T03:48:36.464Z,4.29
2019-03-06T03:49:36.500Z,4.25
2019-03-06T03:50:36.569Z,4.29
2019-03-06T03:51:36.601Z,4.28
2019-03-06T03:52:36.621Z,4.33
2019-03-06T03:53:36.661Z,4.21
2019-03-06T03:54:36.699Z,4.29
2019-03-06T03:55:36.743Z,4.26
2019-03-06T03:56:36.804Z,4.16
2019-03-06T03:57:36.827Z,4.18
2019-03-06T03:58:36.868Z,4.08
2019-03-06T03:59:36.906Z,4.03
2019-03-06T04:00:36.952Z,3.92
2019-03-06T04:01:37.012Z,3.85
2019-03-06T04:02:37.035Z,3.85
2019-03-06T04:03:37.074Z,3.89
2019-03-06T04:04:48.749Z,3.76
2019-03-06T04:05:37.156Z,3.78
2019-03-06T04:06:37.230Z,3.78
2019-03-06T04:07:37.323Z,3.80
2019-03-06T04:08:37.275Z,3.80
2019-03-06T04:09:37.318Z,3.78
2019-03-06T04:10:37.372Z,3.71
2019-03-06T04:11:37.410Z,3.67
2019-03-06T04:12:37.463Z,3.67
2019-03-06T04:13:37.485Z,3.78
2019-03-06T04:14:37.523Z,3.72
2019-03-06T04:15:37.588Z,3.76
2019-03-06T04:16:37.630Z,3.79
2019-03-06T04:17:37.671Z,3.80
2019-03-06T04:18:37.694Z,3.75
2019-03-06T04:19:37.850Z,3.78
2019-03-06T04:20:37.771Z,3.53
2019-03-06T04:21:37.813Z,3.50
2019-03-06T04:22:37.876Z,3.39
2019-03-06T04:23:37.900Z,3.36
2019-03-06T04:24:37.934Z,3.40
2019-03-06T04:25:37.981Z,3.34
2019-03-06T04:26:38.028Z,3.36
2019-03-06T04:27:38.078Z,3.34
2019-03-06T04:28:38.099Z,3.36
2019-03-06T04:29:38.148Z,3.42
2019-03-06T04:30:38.185Z,3.36
2019-03-06T04:31:38.221Z,3.40
2019-03-06T04:32:38.282Z,3.34
2019-03-06T04:33:38.302Z,3.28
2019-03-06T04:34:38.347Z,3.30
2019-03-06T04:35:38.385Z,3.28
2019-03-06T04:36:38.428Z,3.28
2019-03-06T04:37:38.586Z,3.28
2019-03-06T04:38:38.513Z,3.30
2019-03-06T04:39:38.550Z,3.28
2019-03-06T04:40:38.589Z,3.28
2019-03-06T04:41:38.628Z,3.30
2019-03-06T04:42:38.690Z,3.28
2019-03-06T04:43:38.737Z,3.27
2019-03-06T04:44:38.781Z,3.23
2019-03-06T04:45:38.794Z,3.20
2019-03-06T04:46:38.833Z,3.27
2019-03-06T04:47:38.881Z,3.30
2019-03-06T04:48:38.937Z,3.27
2019-03-06T04:49:38.959Z,3.28
2019-03-06T04:50:38.997Z,3.31
2019-03-06T04:51:39.035Z,3.30
2019-03-06T04:52:39.080Z,3.36
2019-03-06T04:53:39.152Z,3.36
2019-03-06T04:54:39.159Z,3.36
2019-03-06T04:55:39.203Z,3.27
2019-03-06T04:56:39.243Z,3.28
2019-03-06T04:57:39.282Z,3.25
2019-03-06T04:58:39.350Z,3.23
2019-03-06T04:59:39.363Z,3.27
2019-03-06T05:00:39.404Z,3.28
2019-03-06T05:01:39.447Z,3.25
2019-03-06T05:02:39.489Z,3.18
2019-03-06T05:03:39.546Z,3.27
2019-03-06T05:04:39.576Z,3.20
2019-03-06T05:05:39.607Z,3.13
2019-03-06T05:06:39.658Z,3.18
2019-03-06T05:07:39.691Z,3.18
2019-03-06T05:08:39.749Z,3.20
2019-03-06T05:09:39.772Z,3.16
2019-03-06T05:10:39.807Z,3.15
2019-03-06T05:11:39.853Z,3.12
2019-03-06T05:12:39.898Z,3.12
2019-03-06T05:13:39.960Z,3.05
2019-03-06T05:14:39.972Z,3.02
2019-03-06T05:15:40.018Z,3.05
2019-03-06T05:16:40.057Z,3.03
2019-03-06T05:17:40.095Z,3.06
2019-03-06T05:18:40.509Z,3.02
2019-03-06T05:19:40.225Z,3.03
2019-03-06T05:20:40.218Z,3.03
2019-03-06T05:21:40.258Z,2.95
2019-03-06T05:22:40.305Z,2.89
2019-03-06T05:23:40.359Z,2.87
2019-03-06T05:24:40.397Z,2.82
2019-03-06T05:25:40.420Z,2.84
2019-03-06T05:26:40.464Z,2.73
2019-03-06T05:27:40.499Z,2.79
2019-03-06T05:28:40.547Z,2.77
2019-03-06T05:29:40.609Z,2.79
2019-03-06T05:30:40.631Z,2.76
2019-03-06T05:31:40.660Z,2.84
2019-03-06T05:32:40.708Z,2.76
2019-03-06T05:33:40.745Z,2.82
2019-03-06T05:34:40.881Z,2.76
2019-03-06T05:35:40.822Z,2.73
2019-03-06T05:36:40.864Z,2.70
2019-03-06T05:37:40.906Z,2.67
2019-03-06T05:38:41.051Z,2.67
2019-03-06T05:39:41.060Z,2.53
2019-03-06T05:40:41.080Z,2.53
2019-03-06T05:41:41.071Z,2.45
2019-03-06T05:42:41.106Z,2.51
2019-03-06T05:43:41.146Z,2.41
2019-03-06T05:44:41.234Z,2.49
2019-03-06T05:45:41.315Z,2.49
2019-03-06T05:46:41.276Z,2.61
2019-03-06T05:47:41.316Z,2.59
2019-03-06T05:48:41.350Z,2.69
2019-03-06T05:49:41.414Z,2.69
2019-03-06T05:50:41.447Z,2.64
2019-03-06T05:51:41.469Z,2.63
2019-03-06T05:52:41.508Z,2.67
2019-03-06T05:53:41.550Z,2.66
2019-03-06T05:54:41.597Z,2.64
2019-03-06T05:55:41.655Z,2.70
2019-03-06T05:56:41.671Z,2.73
2019-03-06T05:57:41.721Z,2.70
2019-03-06T05:58:41.760Z,2.77
2019-03-06T05:59:41.800Z,2.88
2019-03-06T06:00:41.861Z,2.92
2019-03-06T06:01:41.880Z,2.94
2019-03-06T06:02:41.910Z,2.91
2019-03-06T06:03:41.952Z,3.03
2019-03-06T06:04:42.000Z,2.94
2019-03-06T06:05:42.049Z,3.10
2019-03-06T06:06:42.071Z,3.02
2019-03-06T06:07:42.118Z,3.05
2019-03-06T06:08:42.207Z,3.07
2019-03-06T06:09:42.193Z,3.00
2019-03-06T06:10:42.284Z,3.05
2019-03-06T06:11:42.272Z,2.98
2019-03-06T06:12:42.318Z,2.97
2019-03-06T06:13:42.357Z,3.00
2019-03-06T06:14:42.396Z,2.94
2019-03-06T06:15:42.459Z,3.00
2019-03-06T06:16:42.475Z,3.02
2019-03-06T06:17:42.514Z,2.97
2019-03-06T06:18:42.563Z,3.00
2019-03-06T06:19:42.593Z,3.02
2019-03-06T06:20:42.664Z,3.05
2019-03-06T06:21:42.676Z,3.00
2019-03-06T06:22:42.726Z,3.03
2019-03-06T06:23:42.760Z,3.10
2019-03-06T06:24:43.206Z,3.02
2019-03-06T06:25:42.860Z,3.12
2019-03-06T06:26:42.902Z,3.10
2019-03-06T06:27:42.917Z,3.13
2019-03-06T06:28:43.058Z,3.20
2019-03-06T06:29:43.001Z,3.13
2019-03-06T06:30:43.039Z,3.23
2019-03-06T06:31:43.105Z,3.33
2019-03-06T06:32:43.120Z,3.33
2019-03-06T06:33:43.161Z,3.40
2019-03-06T06:34:43.212Z,3.49
2019-03-06T06:35:43.244Z,3.78
2019-03-06T06:36:43.308Z,4.00
2019-03-06T06:37:43.327Z,4.52
2019-03-06T06:38:43.380Z,5.16
2019-03-06T06:39:43.410Z,5.71
2019-03-06T06:40:43.449Z,6.18
2019-03-06T06:41:43.506Z,6.66
2019-03-06T06:42:43.527Z,7.13
2019-03-06T06:43:43.568Z,7.60
2019-03-06T06:44:43.611Z,8.22
2019-03-06T06:45:43.652Z,8.57
2019-03-06T06:46:43.724Z,8.93
2019-03-06T06:47:43.781Z,9.04
2019-03-06T06:48:43.798Z,8.96
2019-03-06T06:49:44.732Z,8.45
2019-03-06T06:50:43.865Z,8.07
2019-03-06T06:51:43.929Z,7.59
2019-03-06T06:52:43.948Z,7.47
2019-03-06T06:53:43.993Z,7.09
2019-03-06T06:54:44.154Z,6.86
2019-03-06T06:55:44.081Z,6.47
2019-03-06T06:56:44.139Z,6.11
2019-03-06T06:57:44.164Z,5.86
2019-03-06T06:58:44.231Z,5.70
2019-03-06T06:59:44.245Z,5.57
2019-03-06T07:00:44.292Z,5.37
2019-03-06T07:01:44.331Z,5.31
2019-03-06T07:02:44.400Z,5.31
2019-03-06T07:03:44.415Z,5.28
2019-03-06T07:04:44.454Z,5.30
2019-03-06T07:05:44.505Z,5.28
2019-03-06T07:06:44.546Z,5.38
2019-03-06T07:07:44.618Z,5.48
2019-03-06T07:08:44.635Z,5.53
2019-03-06T07:09:44.674Z,5.55
2019-03-06T07:10:44.720Z,5.56
2019-03-06T07:11:44.754Z,5.71
2019-03-06T07:12:44.822Z,5.70
2019-03-06T07:13:44.839Z,5.77
2019-03-06T07:14:44.878Z,5.85
2019-03-06T07:15:44.925Z,5.89
2019-03-06T07:16:44.974Z,5.91
2019-03-06T07:17:45.050Z,6.00
2019-03-06T07:18:45.050Z,6.10
2019-03-06T07:19:45.093Z,6.03
2019-03-06T07:20:45.158Z,6.13
2019-03-06T07:21:45.178Z,6.13
2019-03-06T07:22:45.255Z,6.18
2019-03-06T07:23:45.279Z,6.33
2019-03-06T07:24:45.309Z,6.36
2019-03-06T07:25:45.347Z,6.43
2019-03-06T07:26:45.389Z,6.53
2019-03-06T07:27:45.436Z,6.62
2019-03-06T07:28:45.505Z,6.72
2019-03-06T07:29:45.525Z,6.80
2019-03-06T07:30:45.561Z,6.84
2019-03-06T07:31:45.604Z,6.86
2019-03-06T07:32:45.669Z,6.89
2019-03-06T07:33:45.720Z,6.87
2019-03-06T07:34:45.755Z,7.12
2019-03-06T07:35:45.780Z,7.16
2019-03-06T07:36:45.826Z,7.34
2019-03-06T07:37:45.875Z,7.44
2019-03-06T07:38:45.938Z,7.58
2019-03-06T07:39:45.977Z,7.84
2019-03-06T07:40:45.999Z,8.08
2019-03-06T07:41:46.060Z,8.30
2019-03-06T07:42:46.095Z,8.51
2019-03-06T07:43:46.130Z,8.58
2019-03-06T07:44:46.193Z,8.81
2019-03-06T07:45:46.234Z,8.94
2019-03-06T07:46:46.267Z,9.18
2019-03-06T07:47:46.307Z,9.34
2019-03-06T07:48:46.358Z,9.40
2019-03-06T07:49:46.436Z,9.49
2019-03-06T07:50:46.440Z,9.58
2019-03-06T07:51:46.589Z,9.75
2019-03-06T07:52:46.531Z,9.63
2019-03-06T07:53:46.574Z,9.46
2019-03-06T07:54:46.646Z,9.52
2019-03-06T07:55:46.669Z,9.49
2019-03-06T07:56:46.727Z,9.53
2019-03-06T07:57:46.758Z,9.94
2019-03-06T07:58:46.810Z,10.04
2019-03-06T07:59:46.864Z,10.32
2019-03-06T08:00:46.902Z,10.15
2019-03-06T08:01:46.963Z,10.30
2019-03-06T08:02:46.982Z,10.42
2019-03-06T08:03:47.027Z,10.53
2019-03-06T08:04:47.097Z,10.56
2019-03-06T08:05:47.120Z,10.83
2019-03-06T08:06:47.171Z,10.96
2019-03-06T08:07:47.247Z,10.98
2019-03-06T08:08:47.255Z,11.03
2019-03-06T08:09:47.336Z,11.31
2019-03-06T08:10:47.369Z,11.71
2019-03-06T08:11:47.396Z,11.99
2019-03-06T08:12:47.470Z,12.19
2019-03-06T08:13:47.499Z,12.29
2019-03-06T08:14:47.534Z,12.41
2019-03-06T08:15:47.615Z,12.52
2019-03-06T08:16:47.641Z,12.39
2019-03-06T08:17:47.699Z,12.26
2019-03-06T08:18:47.797Z,12.26
2019-03-06T08:19:47.773Z,12.21
2019-03-06T08:20:47.847Z,12.31
2019-03-06T08:21:47.864Z,12.62
2019-03-06T08:22:47.919Z,12.99
2019-03-06T08:23:47.965Z,13.25
2019-03-06T08:24:48.008Z,13.65
2019-03-06T08:25:48.080Z,13.95
2019-03-06T08:26:48.106Z,14.29
2019-03-06T08:27:48.152Z,14.47
2019-03-06T08:28:48.198Z,14.24
2019-03-06T08:29:48.270Z,13.88
2019-03-06T08:30:48.315Z,13.98
2019-03-06T08:31:48.361Z,14.14
2019-03-06T08:32:48.402Z,14.21
2019-03-06T08:33:48.440Z,14.49
2019-03-06T08:34:48.485Z,14.39
2019-03-06T08:35:48.554Z,14.37
2019-03-06T08:36:48.722Z,14.62
2019-03-06T08:37:48.645Z,14.90
2019-03-06T08:38:48.696Z,14.91
2019-03-06T08:39:48.736Z,14.90
2019-03-06T08:40:48.784Z,14.74
2019-03-06T08:41:48.878Z,14.46
2019-03-06T08:42:48.894Z,14.24
2019-03-06T08:43:48.945Z,14.14
2019-03-06T08:44:48.991Z,13.91
2019-03-06T08:45:49.032Z,13.56
2019-03-06T08:46:49.114Z,13.46
2019-03-06T08:47:49.137Z,13.11
2019-03-06T08:48:49.187Z,12.84
2019-03-06T08:49:49.236Z,12.82
2019-03-06T08:50:49.280Z,12.60
2019-03-06T08:51:49.351Z,11.71
2019-03-06T08:52:49.379Z,12.02
2019-03-06T08:53:49.443Z,12.39
2019-03-06T08:54:49.476Z,12.93
2019-03-06T08:55:49.530Z,13.40
2019-03-06T08:56:49.605Z,12.57
2019-03-06T08:57:49.639Z,12.23
2019-03-06T08:58:49.676Z,11.99
2019-03-06T08:59:49.726Z,12.38
2019-03-06T09:00:49.786Z,11.97
2019-03-06T09:01:59.521Z,12.19
2019-03-06T09:02:49.874Z,12.21
2019-03-06T09:03:49.937Z,12.44
2019-03-06T09:04:49.981Z,11.89
2019-03-06T09:05:50.030Z,11.93
2019-03-06T09:06:50.092Z,11.94
2019-03-06T09:07:50.126Z,11.93
2019-03-06T09:08:50.199Z,12.26
2019-03-06T09:09:50.219Z,12.21
2019-03-06T09:10:50.266Z,12.19
2019-03-06T09:11:50.342Z,12.24
2019-03-06T09:12:50.369Z,12.41
2019-03-06T09:13:50.416Z,12.27
2019-03-06T09:14:50.482Z,12.39
2019-03-06T09:15:50.525Z,12.70
2019-03-06T09:16:50.593Z,12.99
2019-03-06T09:17:50.633Z,13.03
2019-03-06T09:18:50.667Z,13.43
2019-03-06T09:19:50.716Z,13.70
2019-03-06T09:20:50.768Z,13.87
2019-03-06T09:21:50.833Z,13.84
2019-03-06T09:22:50.893Z,13.38
2019-03-06T09:23:50.924Z,12.70
2019-03-06T09:24:50.973Z,12.52
2019-03-06T09:25:51.024Z,12.27
2019-03-06T09:26:51.105Z,11.85
2019-03-06T09:27:51.156Z,11.99
2019-03-06T09:28:51.169Z,12.09
2019-03-06T09:29:51.255Z,11.72
2019-03-06T09:30:51.264Z,12.02
2019-03-06T09:31:51.320Z,11.77
2019-03-06T09:32:51.401Z,11.70
2019-03-06T09:33:51.425Z,11.83
2019-03-06T09:34:51.466Z,12.21
2019-03-06T09:35:51.616Z,12.54
2019-03-06T09:36:51.577Z,12.69
2019-03-06T09:37:51.636Z,12.57
2019-03-06T09:38:51.790Z,12.44
2019-03-06T09:39:51.717Z,12.63
2019-03-06T09:40:51.783Z,12.41
2019-03-06T09:41:51.823Z,11.52
2019-03-06T09:42:51.945Z,10.92
2019-03-06T09:43:51.946Z,10.63
2019-03-06T09:44:51.966Z,10.66
2019-03-06T09:45:52.033Z,10.46
2019-03-06T09:46:52.086Z,10.01
2019-03-06T09:47:52.116Z,10.12
2019-03-06T09:48:52.190Z,10.58
2019-03-06T09:49:52.759Z,10.73
2019-03-06T09:50:52.271Z,11.10
2019-03-06T09:51:52.311Z,10.80
2019-03-06T09:52:52.368Z,11.06
2019-03-06T09:53:52.443Z,11.20
2019-03-06T09:54:52.466Z,11.31
2019-03-06T09:55:52.552Z,11.21
2019-03-06T09:56:52.568Z,11.20
2019-03-06T09:57:52.612Z,11.07
2019-03-06T09:58:52.701Z,11.06
2019-03-06T09:59:52.702Z,11.11
2019-03-06T10:00:52.823Z,10.89
2019-03-06T10:01:52.812Z,10.78
2019-03-06T10:02:52.868Z,10.60
2019-03-06T10:03:52.928Z,10.47
2019-03-06T10:04:52.987Z,10.65
2019-03-06T10:05:53.001Z,10.77
2019-03-06T10:06:53.053Z,10.78
2019-03-06T10:07:53.096Z,10.98
2019-03-06T10:08:53.157Z,11.02
2019-03-06T10:09:59.020Z,11.11
2019-03-06T10:10:57.540Z,11.14
2019-03-06T10:11:53.299Z,11.20
2019-03-06T10:12:53.337Z,11.16
2019-03-06T10:13:53.403Z,11.17
2019-03-06T10:14:53.477Z,11.09
2019-03-06T10:15:53.481Z,11.13
2019-03-06T10:16:53.529Z,10.98
2019-03-06T10:17:53.611Z,10.99
2019-03-06T10:18:53.765Z,10.99
2019-03-06T10:19:53.701Z,11.14
2019-03-06T10:20:53.756Z,11.35
2019-03-06T10:21:53.771Z,11.35
2019-03-06T10:22:54.869Z,11.20
2019-03-06T10:23:53.869Z,11.32
2019-03-06T10:24:55.625Z,11.46
2019-03-06T10:25:54.033Z,11.59
2019-03-06T10:26:54.014Z,11.83
2019-03-06T10:27:54.063Z,11.78
2019-03-06T10:28:54.112Z,11.72
2019-03-06T10:29:54.204Z,11.68
2019-03-06T10:31:02.069Z,11.70
2019-03-06T10:31:54.258Z,11.56
2019-03-06T10:32:54.306Z,11.46
2019-03-06T10:33:54.354Z,11.39
2019-03-06T10:34:55.151Z,11.43
2019-03-06T10:35:54.467Z,11.31
2019-03-06T10:36:54.498Z,11.25
2019-03-06T10:37:54.554Z,11.24
2019-03-06T10:38:54.607Z,11.24
2019-03-06T10:39:54.677Z,11.29
2019-03-06T10:40:54.696Z,11.17
2019-03-06T10:41:54.740Z,10.89
2019-03-06T10:42:54.788Z,10.81
2019-03-06T10:43:54.940Z,10.78
2019-03-06T10:44:54.911Z,10.56
2019-03-06T10:45:54.954Z,10.59
2019-03-06T10:46:54.986Z,10.71
2019-03-06T10:47:55.028Z,11.03
2019-03-06T10:48:55.079Z,11.32
2019-03-06T10:49:55.126Z,11.52
2019-03-06T10:50:55.201Z,11.59
2019-03-06T10:51:55.230Z,11.44
2019-03-06T10:52:55.360Z,11.10
2019-03-06T10:53:55.318Z,11.02
2019-03-06T10:54:55.366Z,10.83
2019-03-06T10:55:55.432Z,10.73
2019-03-06T10:56:55.493Z,10.25
2019-03-06T10:57:55.519Z,9.93
2019-03-06T10:58:55.571Z,9.83
2019-03-06T10:59:55.618Z,9.67
2019-03-06T11:00:55.682Z,9.34
2019-03-06T11:01:55.732Z,9.25
2019-03-06T11:02:56.994Z,9.06
2019-03-06T11:03:55.941Z,9.01
2019-03-06T11:04:55.844Z,9.02
2019-03-06T11:05:55.899Z,8.93
2019-03-06T11:06:55.968Z,8.97
2019-03-06T11:07:55.996Z,8.83
2019-03-06T11:08:56.044Z,8.94
2019-03-06T11:09:56.086Z,8.84
2019-03-06T11:10:56.183Z,8.94
2019-03-06T11:11:56.211Z,9.21
2019-03-06T11:12:56.233Z,9.34
2019-03-06T11:13:56.276Z,9.60
2019-03-06T11:14:56.330Z,9.81
2019-03-06T11:15:56.371Z,9.88
2019-03-06T11:16:56.436Z,10.14
2019-03-06T11:17:56.495Z,10.36
2019-03-06T11:18:56.612Z,10.65
2019-03-06T11:19:56.557Z,10.78
2019-03-06T11:20:56.616Z,11.09
2019-03-06T11:21:56.678Z,11.52
2019-03-06T11:22:56.698Z,12.06
2019-03-06T11:23:56.757Z,12.37
2019-03-06T11:24:56.810Z,12.78
2019-03-06T11:25:56.843Z,12.92
2019-03-06T11:26:56.916Z,12.84
2019-03-06T11:27:56.964Z,12.78
2019-03-06T11:28:56.998Z,12.92
2019-03-06T11:29:57.143Z,12.66
2019-03-06T11:30:57.078Z,11.99
2019-03-06T11:31:57.129Z,11.32
2019-03-06T11:32:57.201Z,11.16
2019-03-06T11:33:57.223Z,10.94
2019-03-06T11:34:57.274Z,10.80
2019-03-06T11:35:57.322Z,10.77
2019-03-06T11:36:57.369Z,10.14
2019-03-06T11:37:57.441Z,10.03
2019-03-06T11:38:57.481Z,10.17
2019-03-06T11:39:57.512Z,10.09
2019-03-06T11:40:57.580Z,9.86
2019-03-06T11:41:57.607Z,9.52
2019-03-06T11:42:57.679Z,9.32
2019-03-06T11:43:58.182Z,9.21
2019-03-06T11:44:57.758Z,9.23
2019-03-06T11:45:57.802Z,9.30
2019-03-06T11:46:57.850Z,9.32
2019-03-06T11:47:57.912Z,9.50
2019-03-06T11:48:57.946Z,9.57
2019-03-06T11:49:58.068Z,9.75
2019-03-06T11:50:58.037Z,9.70
2019-03-06T11:51:58.086Z,9.61
2019-03-06T11:52:58.164Z,9.78
2019-03-06T11:53:58.185Z,9.83
2019-03-06T11:55:05.924Z,9.56
2019-03-06T11:55:58.277Z,9.70
2019-03-06T11:56:58.390Z,9.85
2019-03-06T11:57:58.402Z,9.79
2019-03-06T11:58:58.442Z,9.70
2019-03-06T11:59:58.461Z,9.82
2019-03-06T12:00:58.509Z,9.83
2019-03-06T12:01:58.564Z,9.91
2019-03-06T12:02:58.631Z,10.19
2019-03-06T12:03:58.680Z,10.34
2019-03-06T12:04:58.700Z,10.65
2019-03-06T12:05:58.769Z,10.62
2019-03-06T12:06:58.796Z,10.77
2019-03-06T12:07:58.846Z,10.89
2019-03-06T12:08:58.933Z,11.02
2019-03-06T12:09:58.934Z,11.24
2019-03-06T12:10:58.981Z,11.39
2019-03-06T12:11:59.031Z,11.47
2019-03-06T12:12:59.139Z,11.74
2019-03-06T12:13:59.149Z,11.87
2019-03-06T12:14:59.175Z,11.94
2019-03-06T12:15:59.222Z,12.13
2019-03-06T12:16:59.281Z,12.41
2019-03-06T12:17:59.315Z,12.52
2019-03-06T12:18:59.392Z,12.75
2019-03-06T12:20:07.917Z,13.02
2019-03-06T12:20:59.472Z,13.07
2019-03-06T12:21:59.520Z,13.38
2019-03-06T12:22:59.588Z,13.58
2019-03-06T12:23:59.632Z,13.89
2019-03-06T12:24:59.658Z,14.28
2019-03-06T12:25:59.720Z,14.37
2019-03-06T12:26:59.804Z,14.68
2019-03-06T12:27:59.817Z,14.91
2019-03-06T12:28:59.894Z,15.12
2019-03-06T12:29:59.906Z,15.33
2019-03-06T12:30:59.964Z,15.52
2019-03-06T12:32:00.010Z,15.72
2019-03-06T12:33:00.057Z,15.74
2019-03-06T12:34:00.144Z,16.00
2019-03-06T12:35:00.162Z,16.04
2019-03-06T12:36:00.197Z,16.22
2019-03-06T12:37:00.247Z,16.27
2019-03-06T12:38:00.304Z,16.49
2019-03-06T12:39:00.365Z,16.60
2019-03-06T12:40:00.413Z,16.80
2019-03-06T12:41:00.455Z,16.83
2019-03-06T12:42:00.496Z,16.95
2019-03-06T12:43:00.577Z,16.98
2019-03-06T12:44:07.585Z,17.11
2019-03-06T12:45:00.712Z,17.23
2019-03-06T12:46:00.701Z,17.23
2019-03-06T12:47:00.748Z,17.20
2019-03-06T12:48:00.814Z,17.20
2019-03-06T12:49:00.863Z,17.23
2019-03-06T12:50:05.550Z,17.22
2019-03-06T12:51:00.962Z,17.30
2019-03-06T12:52:01.005Z,17.23
2019-03-06T12:53:01.070Z,17.25
2019-03-06T12:54:01.101Z,17.36
2019-03-06T12:55:01.172Z,17.44
2019-03-06T12:56:01.205Z,17.53
2019-03-06T12:57:01.262Z,17.51
2019-03-06T12:58:01.305Z,17.53
2019-03-06T12:59:01.352Z,17.46
2019-03-06T13:00:01.447Z,17.46
2019-03-06T13:01:01.455Z,16.95
2019-03-06T13:02:01.513Z,16.65
2019-03-06T13:03:01.616Z,16.04
2019-03-06T13:04:01.638Z,15.67
2019-03-06T13:05:01.685Z,15.30
2019-03-06T13:06:01.743Z,15.12
2019-03-06T13:07:01.779Z,14.95
2019-03-06T13:08:02.531Z,14.37
2019-03-06T13:09:01.867Z,13.87
2019-03-06T13:10:01.923Z,13.80